sensor_id;sensor_type;location;lat;lon;timestamp;P1;durP1;ratioP1;P2;durP2;ratioP2
2762;SDS011;1389;51.490;7.338;2023-04-03T00:01:39;389.42;;;130.68;;
2762;SDS011;1389;51.490;7.338;2023-04-03T00:04:05;389.07;;;127.80;;
2762;SDS011;1389;51.490;7.338;2023-04-03T00:06:32;388.30;;;127.70;;
2762;SDS011;1389;51.490;7.338;2023-04-03T00:08:59;389.20;;;129.32;;
2762;SDS011;1389;51.490;7.338;2023-04-03T00:11:25;388.23;;;129.20;;
2762;SDS011;1389;51.490;7.338;2023-04-03T00:13:51;389.85;;;131.75;;
2762;SDS011;1389;51.490;7.338;2023-04-03T00:16:17;388.10;;;129.23;;
2762;SDS011;1389;51.490;7.338;2023-04-03T00:18:43;388.13;;;127.03;;
2762;SDS011;1389;51.490;7.338;2023-04-03T00:21:10;390.00;;;128.48;;
2762;SDS011;1389;51.490;7.338;2023-04-03T00:23:38;397.52;;;138.98;;
2762;SDS011;1389;51.490;7.338;2023-04-03T00:26:04;388.33;;;132.13;;
2762;SDS011;1389;51.490;7.338;2023-04-03T00:28:30;385.77;;;121.80;;
2762;SDS011;1389;51.490;7.338;2023-04-03T00:30:56;389.88;;;126.18;;
2762;SDS011;1389;51.490;7.338;2023-04-03T00:33:22;387.42;;;123.50;;
2762;SDS011;1389;51.490;7.338;2023-04-03T00:35:49;384.35;;;120.55;;
2762;SDS011;1389;51.490;7.338;2023-04-03T00:38:16;386.95;;;125.95;;
2762;SDS011;1389;51.490;7.338;2023-04-03T00:40:43;388.58;;;125.97;;
2762;SDS011;1389;51.490;7.338;2023-04-03T00:43:12;390.00;;;126.15;;
2762;SDS011;1389;51.490;7.338;2023-04-03T00:45:41;390.77;;;124.55;;
2762;SDS011;1389;51.490;7.338;2023-04-03T00:48:51;390.90;;;124.53;;
2762;SDS011;1389;51.490;7.338;2023-04-03T00:51:07;386.85;;;121.35;;
2762;SDS011;1389;51.490;7.338;2023-04-03T00:53:37;388.13;;;121.55;;
2762;SDS011;1389;51.490;7.338;2023-04-03T00:56:08;390.25;;;127.15;;
2762;SDS011;1389;51.490;7.338;2023-04-03T00:58:42;390.83;;;126.80;;
2762;SDS011;1389;51.490;7.338;2023-04-03T01:01:12;389.60;;;125.38;;
2762;SDS011;1389;51.490;7.338;2023-04-03T01:03:43;389.67;;;120.68;;
2762;SDS011;1389;51.490;7.338;2023-04-03T01:06:09;386.80;;;119.50;;
2762;SDS011;1389;51.490;7.338;2023-04-03T01:08:41;386.35;;;119.47;;
2762;SDS011;1389;51.490;7.338;2023-04-03T01:11:08;392.10;;;127.65;;
2762;SDS011;1389;51.490;7.338;2023-04-03T01:13:34;384.60;;;117.50;;
2762;SDS011;1389;51.490;7.338;2023-04-03T01:16:01;385.90;;;120.20;;
2762;SDS011;1389;51.490;7.338;2023-04-03T01:18:28;386.97;;;120.40;;
2762;SDS011;1389;51.490;7.338;2023-04-03T01:26:35;387.00;;;119.00;;
2762;SDS011;1389;51.490;7.338;2023-04-03T01:29:01;385.57;;;121.23;;
2762;SDS011;1389;51.490;7.338;2023-04-03T01:31:31;385.00;;;117.28;;
2762;SDS011;1389;51.490;7.338;2023-04-03T01:34:15;393.40;;;122.93;;
2762;SDS011;1389;51.490;7.338;2023-04-03T01:36:42;386.13;;;118.85;;
2762;SDS011;1389;51.490;7.338;2023-04-03T01:39:08;386.50;;;120.57;;
2762;SDS011;1389;51.490;7.338;2023-04-03T01:41:34;385.77;;;123.05;;
2762;SDS011;1389;51.490;7.338;2023-04-03T01:44:00;388.48;;;123.05;;
2762;SDS011;1389;51.490;7.338;2023-04-03T01:46:26;383.85;;;122.10;;
2762;SDS011;1389;51.490;7.338;2023-04-03T01:48:53;429.27;;;200.77;;
2762;SDS011;1389;51.490;7.338;2023-04-03T01:51:19;384.80;;;121.15;;
2762;SDS011;1389;51.490;7.338;2023-04-03T01:53:45;383.20;;;120.90;;
2762;SDS011;1389;51.490;7.338;2023-04-03T01:56:11;382.77;;;119.95;;
2762;SDS011;1389;51.490;7.338;2023-04-03T01:58:37;382.55;;;120.90;;
2762;SDS011;1389;51.490;7.338;2023-04-03T02:01:03;380.70;;;118.97;;
2762;SDS011;1389;51.490;7.338;2023-04-03T02:03:31;383.50;;;121.03;;
2762;SDS011;1389;51.490;7.338;2023-04-03T02:05:57;385.48;;;118.55;;
2762;SDS011;1389;51.490;7.338;2023-04-03T02:08:24;379.88;;;117.10;;
2762;SDS011;1389;51.490;7.338;2023-04-03T02:10:50;388.95;;;116.97;;
2762;SDS011;1389;51.490;7.338;2023-04-03T02:13:17;379.77;;;117.07;;
2762;SDS011;1389;51.490;7.338;2023-04-03T02:15:43;381.60;;;116.72;;
2762;SDS011;1389;51.490;7.338;2023-04-03T02:18:11;382.27;;;117.72;;
2762;SDS011;1389;51.490;7.338;2023-04-03T02:20:38;390.13;;;122.15;;
2762;SDS011;1389;51.490;7.338;2023-04-03T02:23:04;385.23;;;121.68;;
2762;SDS011;1389;51.490;7.338;2023-04-03T02:25:31;383.23;;;118.50;;
2762;SDS011;1389;51.490;7.338;2023-04-03T02:27:57;382.58;;;120.65;;
2762;SDS011;1389;51.490;7.338;2023-04-03T02:30:23;383.57;;;124.10;;
2762;SDS011;1389;51.490;7.338;2023-04-03T02:32:49;386.25;;;123.97;;
2762;SDS011;1389;51.490;7.338;2023-04-03T02:35:17;388.60;;;125.57;;
2762;SDS011;1389;51.490;7.338;2023-04-03T02:37:44;392.02;;;128.88;;
2762;SDS011;1389;51.490;7.338;2023-04-03T02:40:10;387.27;;;124.13;;
2762;SDS011;1389;51.490;7.338;2023-04-03T02:42:37;387.73;;;125.07;;
2762;SDS011;1389;51.490;7.338;2023-04-03T02:45:03;388.88;;;125.68;;
2762;SDS011;1389;51.490;7.338;2023-04-03T02:47:29;390.10;;;127.50;;
2762;SDS011;1389;51.490;7.338;2023-04-03T02:49:55;390.35;;;126.97;;
2762;SDS011;1389;51.490;7.338;2023-04-03T02:52:22;391.13;;;130.23;;
2762;SDS011;1389;51.490;7.338;2023-04-03T02:54:48;394.03;;;132.20;;
2762;SDS011;1389;51.490;7.338;2023-04-03T02:57:14;395.45;;;128.93;;
2762;SDS011;1389;51.490;7.338;2023-04-03T02:59:40;389.27;;;126.72;;
2762;SDS011;1389;51.490;7.338;2023-04-03T03:02:07;386.55;;;122.78;;
2762;SDS011;1389;51.490;7.338;2023-04-03T03:04:34;383.95;;;124.30;;
2762;SDS011;1389;51.490;7.338;2023-04-03T03:07:01;388.52;;;128.68;;
2762;SDS011;1389;51.490;7.338;2023-04-03T03:09:27;389.15;;;127.22;;
2762;SDS011;1389;51.490;7.338;2023-04-03T03:11:55;385.20;;;126.03;;
2762;SDS011;1389;51.490;7.338;2023-04-03T03:14:21;388.95;;;130.45;;
2762;SDS011;1389;51.490;7.338;2023-04-03T03:16:48;386.55;;;130.77;;
2762;SDS011;1389;51.490;7.338;2023-04-03T03:19:14;385.13;;;126.85;;
2762;SDS011;1389;51.490;7.338;2023-04-03T03:21:40;386.25;;;127.15;;
2762;SDS011;1389;51.490;7.338;2023-04-03T03:24:06;386.97;;;127.57;;
2762;SDS011;1389;51.490;7.338;2023-04-03T03:26:32;385.17;;;123.75;;
2762;SDS011;1389;51.490;7.338;2023-04-03T03:28:58;382.05;;;123.78;;
2762;SDS011;1389;51.490;7.338;2023-04-03T03:31:24;388.10;;;125.20;;
2762;SDS011;1389;51.490;7.338;2023-04-03T03:33:50;375.52;;;115.65;;
2762;SDS011;1389;51.490;7.338;2023-04-03T03:36:16;379.08;;;118.28;;
2762;SDS011;1389;51.490;7.338;2023-04-03T03:38:42;380.73;;;118.07;;
2762;SDS011;1389;51.490;7.338;2023-04-03T03:41:08;379.90;;;120.30;;
2762;SDS011;1389;51.490;7.338;2023-04-03T03:43:35;384.38;;;122.78;;
2762;SDS011;1389;51.490;7.338;2023-04-03T03:46:01;380.58;;;119.82;;
2762;SDS011;1389;51.490;7.338;2023-04-03T03:48:27;379.88;;;117.75;;
2762;SDS011;1389;51.490;7.338;2023-04-03T03:50:53;378.48;;;117.50;;
2762;SDS011;1389;51.490;7.338;2023-04-03T03:53:19;377.20;;;116.20;;
2762;SDS011;1389;51.490;7.338;2023-04-03T03:55:45;387.27;;;127.20;;
2762;SDS011;1389;51.490;7.338;2023-04-03T03:58:11;382.40;;;124.97;;
2762;SDS011;1389;51.490;7.338;2023-04-03T04:00:37;386.33;;;128.02;;
2762;SDS011;1389;51.490;7.338;2023-04-03T04:03:03;385.02;;;126.45;;
2762;SDS011;1389;51.490;7.338;2023-04-03T04:05:32;390.93;;;128.10;;
2762;SDS011;1389;51.490;7.338;2023-04-03T04:07:58;382.13;;;125.68;;
2762;SDS011;1389;51.490;7.338;2023-04-03T04:10:24;387.95;;;131.25;;
2762;SDS011;1389;51.490;7.338;2023-04-03T04:12:50;386.85;;;126.07;;
2762;SDS011;1389;51.490;7.338;2023-04-03T04:15:17;385.75;;;125.53;;
2762;SDS011;1389;51.490;7.338;2023-04-03T04:17:43;391.70;;;128.93;;
2762;SDS011;1389;51.490;7.338;2023-04-03T04:20:09;392.10;;;131.13;;
2762;SDS011;1389;51.490;7.338;2023-04-03T04:22:36;390.30;;;132.93;;
2762;SDS011;1389;51.490;7.338;2023-04-03T04:25:04;393.70;;;137.38;;
2762;SDS011;1389;51.490;7.338;2023-04-03T04:27:30;394.88;;;129.65;;
2762;SDS011;1389;51.490;7.338;2023-04-03T04:29:56;391.45;;;128.70;;
2762;SDS011;1389;51.490;7.338;2023-04-03T04:32:22;391.95;;;128.35;;
2762;SDS011;1389;51.490;7.338;2023-04-03T04:34:48;394.50;;;131.75;;
2762;SDS011;1389;51.490;7.338;2023-04-03T04:37:14;391.50;;;134.50;;
2762;SDS011;1389;51.490;7.338;2023-04-03T04:39:41;396.58;;;134.05;;
2762;SDS011;1389;51.490;7.338;2023-04-03T04:42:07;393.33;;;130.02;;
2762;SDS011;1389;51.490;7.338;2023-04-03T04:44:38;388.08;;;126.22;;
2762;SDS011;1389;51.490;7.338;2023-04-03T04:47:04;380.33;;;122.32;;
2762;SDS011;1389;51.490;7.338;2023-04-03T04:49:30;386.23;;;123.07;;
2762;SDS011;1389;51.490;7.338;2023-04-03T04:51:56;387.65;;;125.00;;
2762;SDS011;1389;51.490;7.338;2023-04-03T04:54:22;385.87;;;122.97;;
2762;SDS011;1389;51.490;7.338;2023-04-03T04:56:48;391.17;;;126.68;;
2762;SDS011;1389;51.490;7.338;2023-04-03T04:59:15;386.20;;;124.70;;
2762;SDS011;1389;51.490;7.338;2023-04-03T05:01:41;389.17;;;126.63;;
2762;SDS011;1389;51.490;7.338;2023-04-03T05:04:07;389.15;;;122.80;;
2762;SDS011;1389;51.490;7.338;2023-04-03T05:06:33;384.80;;;123.53;;
2762;SDS011;1389;51.490;7.338;2023-04-03T05:09:00;380.47;;;119.80;;
2762;SDS011;1389;51.490;7.338;2023-04-03T05:11:26;387.17;;;124.73;;
2762;SDS011;1389;51.490;7.338;2023-04-03T05:13:52;393.98;;;125.20;;
2762;SDS011;1389;51.490;7.338;2023-04-03T05:16:19;387.95;;;127.25;;
2762;SDS011;1389;51.490;7.338;2023-04-03T05:18:45;380.98;;;121.97;;
2762;SDS011;1389;51.490;7.338;2023-04-03T05:21:11;382.17;;;122.22;;
2762;SDS011;1389;51.490;7.338;2023-04-03T05:23:37;382.70;;;119.07;;
2762;SDS011;1389;51.490;7.338;2023-04-03T05:26:03;387.07;;;123.47;;
2762;SDS011;1389;51.490;7.338;2023-04-03T05:28:29;380.30;;;118.55;;
2762;SDS011;1389;51.490;7.338;2023-04-03T05:30:56;386.23;;;124.90;;
2762;SDS011;1389;51.490;7.338;2023-04-03T05:33:23;383.35;;;120.22;;
2762;SDS011;1389;51.490;7.338;2023-04-03T05:35:52;383.20;;;121.15;;
2762;SDS011;1389;51.490;7.338;2023-04-03T05:38:18;385.23;;;120.80;;
2762;SDS011;1389;51.490;7.338;2023-04-03T05:40:45;384.50;;;121.68;;
2762;SDS011;1389;51.490;7.338;2023-04-03T05:43:11;382.65;;;120.47;;
2762;SDS011;1389;51.490;7.338;2023-04-03T05:45:37;385.00;;;122.40;;
2762;SDS011;1389;51.490;7.338;2023-04-03T05:48:03;385.20;;;122.38;;
2762;SDS011;1389;51.490;7.338;2023-04-03T05:50:30;388.65;;;125.85;;
2762;SDS011;1389;51.490;7.338;2023-04-03T05:52:57;386.23;;;125.85;;
2762;SDS011;1389;51.490;7.338;2023-04-03T05:55:24;385.87;;;125.73;;
2762;SDS011;1389;51.490;7.338;2023-04-03T05:57:50;391.20;;;125.25;;
2762;SDS011;1389;51.490;7.338;2023-04-03T06:00:17;383.85;;;124.70;;
2762;SDS011;1389;51.490;7.338;2023-04-03T06:02:43;389.08;;;123.85;;
2762;SDS011;1389;51.490;7.338;2023-04-03T06:05:09;387.30;;;123.87;;
2762;SDS011;1389;51.490;7.338;2023-04-03T06:07:37;384.13;;;123.57;;
2762;SDS011;1389;51.490;7.338;2023-04-03T06:10:03;385.97;;;123.30;;
2762;SDS011;1389;51.490;7.338;2023-04-03T06:12:30;387.77;;;127.20;;
2762;SDS011;1389;51.490;7.338;2023-04-03T06:14:56;384.77;;;124.13;;
2762;SDS011;1389;51.490;7.338;2023-04-03T06:17:23;386.73;;;124.55;;
2762;SDS011;1389;51.490;7.338;2023-04-03T06:19:49;386.02;;;124.88;;
2762;SDS011;1389;51.490;7.338;2023-04-03T06:22:15;383.90;;;122.00;;
2762;SDS011;1389;51.490;7.338;2023-04-03T06:24:41;384.27;;;125.28;;
2762;SDS011;1389;51.490;7.338;2023-04-03T06:27:09;386.95;;;125.28;;
2762;SDS011;1389;51.490;7.338;2023-04-03T06:29:36;388.63;;;128.73;;
2762;SDS011;1389;51.490;7.338;2023-04-03T06:32:02;384.60;;;126.43;;
2762;SDS011;1389;51.490;7.338;2023-04-03T06:34:29;387.35;;;122.65;;
2762;SDS011;1389;51.490;7.338;2023-04-03T06:36:55;386.90;;;124.17;;
2762;SDS011;1389;51.490;7.338;2023-04-03T06:39:21;387.95;;;125.60;;
2762;SDS011;1389;51.490;7.338;2023-04-03T06:41:48;389.20;;;123.30;;
2762;SDS011;1389;51.490;7.338;2023-04-03T06:44:15;388.10;;;121.93;;
2762;SDS011;1389;51.490;7.338;2023-04-03T06:46:41;389.15;;;124.15;;
2762;SDS011;1389;51.490;7.338;2023-04-03T06:49:09;390.00;;;123.43;;
2762;SDS011;1389;51.490;7.338;2023-04-03T06:51:35;388.93;;;125.97;;
2762;SDS011;1389;51.490;7.338;2023-04-03T06:54:02;389.60;;;126.20;;
2762;SDS011;1389;51.490;7.338;2023-04-03T06:56:29;389.30;;;125.80;;
2762;SDS011;1389;51.490;7.338;2023-04-03T06:58:55;387.90;;;127.13;;
2762;SDS011;1389;51.490;7.338;2023-04-03T07:01:25;393.05;;;131.65;;
2762;SDS011;1389;51.490;7.338;2023-04-03T07:03:53;388.35;;;127.70;;
2762;SDS011;1389;51.490;7.338;2023-04-03T07:06:20;393.42;;;131.35;;
2762;SDS011;1389;51.490;7.338;2023-04-03T07:08:46;390.85;;;131.70;;
2762;SDS011;1389;51.490;7.338;2023-04-03T07:11:16;394.13;;;130.65;;
2762;SDS011;1389;51.490;7.338;2023-04-03T07:13:42;394.23;;;138.80;;
2762;SDS011;1389;51.490;7.338;2023-04-03T07:16:08;390.65;;;134.63;;
2762;SDS011;1389;51.490;7.338;2023-04-03T07:18:35;397.42;;;139.38;;
2762;SDS011;1389;51.490;7.338;2023-04-03T07:21:01;403.67;;;142.82;;
2762;SDS011;1389;51.490;7.338;2023-04-03T07:23:27;396.73;;;140.07;;
2762;SDS011;1389;51.490;7.338;2023-04-03T07:25:54;397.65;;;140.07;;
2762;SDS011;1389;51.490;7.338;2023-04-03T07:28:21;394.08;;;142.82;;
2762;SDS011;1389;51.490;7.338;2023-04-03T07:30:49;396.20;;;142.77;;
2762;SDS011;1389;51.490;7.338;2023-04-03T07:33:17;403.10;;;147.77;;
2762;SDS011;1389;51.490;7.338;2023-04-03T07:35:44;403.60;;;154.20;;
2762;SDS011;1389;51.490;7.338;2023-04-03T07:38:10;404.55;;;156.57;;
2762;SDS011;1389;51.490;7.338;2023-04-03T07:40:37;402.80;;;152.70;;
2762;SDS011;1389;51.490;7.338;2023-04-03T07:43:04;401.87;;;150.03;;
2762;SDS011;1389;51.490;7.338;2023-04-03T07:45:31;408.13;;;162.15;;
2762;SDS011;1389;51.490;7.338;2023-04-03T07:48:00;411.00;;;158.60;;
2762;SDS011;1389;51.490;7.338;2023-04-03T07:50:26;409.60;;;163.33;;
2762;SDS011;1389;51.490;7.338;2023-04-03T07:52:53;411.60;;;168.73;;
2762;SDS011;1389;51.490;7.338;2023-04-03T07:55:21;418.90;;;181.10;;
2762;SDS011;1389;51.490;7.338;2023-04-03T07:57:47;411.25;;;169.48;;
2762;SDS011;1389;51.490;7.338;2023-04-03T08:00:13;417.23;;;172.10;;
2762;SDS011;1389;51.490;7.338;2023-04-03T08:02:40;421.98;;;187.18;;
2762;SDS011;1389;51.490;7.338;2023-04-03T08:05:06;430.92;;;195.27;;
2762;SDS011;1389;51.490;7.338;2023-04-03T08:07:32;421.35;;;185.02;;
2762;SDS011;1389;51.490;7.338;2023-04-03T08:09:58;423.83;;;184.37;;
2762;SDS011;1389;51.490;7.338;2023-04-03T08:12:24;428.60;;;194.27;;
2762;SDS011;1389;51.490;7.338;2023-04-03T08:14:50;430.65;;;195.65;;
2762;SDS011;1389;51.490;7.338;2023-04-03T08:17:16;425.98;;;202.05;;
2762;SDS011;1389;51.490;7.338;2023-04-03T08:19:42;430.00;;;200.05;;
2762;SDS011;1389;51.490;7.338;2023-04-03T08:22:08;429.50;;;202.50;;
2762;SDS011;1389;51.490;7.338;2023-04-03T08:24:35;437.83;;;208.88;;
2762;SDS011;1389;51.490;7.338;2023-04-03T08:27:01;433.53;;;201.77;;
2762;SDS011;1389;51.490;7.338;2023-04-03T08:29:27;449.17;;;225.98;;
2762;SDS011;1389;51.490;7.338;2023-04-03T08:31:53;444.08;;;220.25;;
2762;SDS011;1389;51.490;7.338;2023-04-03T08:34:20;449.50;;;229.50;;
2762;SDS011;1389;51.490;7.338;2023-04-03T08:36:46;449.45;;;232.20;;
2762;SDS011;1389;51.490;7.338;2023-04-03T08:39:12;451.80;;;229.00;;
2762;SDS011;1389;51.490;7.338;2023-04-03T08:41:39;444.08;;;218.77;;
2762;SDS011;1389;51.490;7.338;2023-04-03T08:44:20;441.63;;;217.20;;
2762;SDS011;1389;51.490;7.338;2023-04-03T08:49:29;451.55;;;229.93;;
2762;SDS011;1389;51.490;7.338;2023-04-03T08:52:00;451.23;;;233.30;;
2762;SDS011;1389;51.490;7.338;2023-04-03T08:54:35;448.33;;;221.68;;
2762;SDS011;1389;51.490;7.338;2023-04-03T08:57:09;458.80;;;232.23;;
2762;SDS011;1389;51.490;7.338;2023-04-03T08:59:37;454.55;;;231.15;;
2762;SDS011;1389;51.490;7.338;2023-04-03T09:02:23;453.63;;;231.65;;
2762;SDS011;1389;51.490;7.338;2023-04-03T09:04:53;448.75;;;225.63;;
2762;SDS011;1389;51.490;7.338;2023-04-03T09:07:25;471.42;;;262.40;;
2762;SDS011;1389;51.490;7.338;2023-04-03T09:10:01;461.20;;;247.80;;
2762;SDS011;1389;51.490;7.338;2023-04-03T09:12:32;463.13;;;247.82;;
2762;SDS011;1389;51.490;7.338;2023-04-03T09:26:16;487.52;;;285.38;;
2762;SDS011;1389;51.490;7.338;2023-04-03T09:28:45;488.00;;;284.20;;
2762;SDS011;1389;51.490;7.338;2023-04-03T09:31:21;480.70;;;277.15;;
2762;SDS011;1389;51.490;7.338;2023-04-03T09:33:51;487.67;;;293.80;;
2762;SDS011;1389;51.490;7.338;2023-04-03T09:39:14;487.58;;;289.92;;
2762;SDS011;1389;51.490;7.338;2023-04-03T09:41:54;479.17;;;284.73;;
2762;SDS011;1389;51.490;7.338;2023-04-03T09:44:34;482.10;;;283.67;;
2762;SDS011;1389;51.490;7.338;2023-04-03T09:47:18;486.83;;;294.05;;
2762;SDS011;1389;51.490;7.338;2023-04-03T09:49:44;484.58;;;293.58;;
2762;SDS011;1389;51.490;7.338;2023-04-03T09:52:22;484.05;;;294.33;;
2762;SDS011;1389;51.490;7.338;2023-04-03T09:54:50;495.70;;;300.80;;
2762;SDS011;1389;51.490;7.338;2023-04-03T09:57:16;485.42;;;289.13;;
2762;SDS011;1389;51.490;7.338;2023-04-03T09:59:58;483.38;;;290.48;;
2762;SDS011;1389;51.490;7.338;2023-04-03T10:02:33;485.38;;;283.70;;
2762;SDS011;1389;51.490;7.338;2023-04-03T10:08:08;461.95;;;260.67;;
2762;SDS011;1389;51.490;7.338;2023-04-03T10:10:47;455.50;;;244.38;;
2762;SDS011;1389;51.490;7.338;2023-04-03T10:13:32;450.33;;;233.02;;
2762;SDS011;1389;51.490;7.338;2023-04-03T10:16:14;464.30;;;254.90;;
2762;SDS011;1389;51.490;7.338;2023-04-03T10:21:39;459.90;;;246.25;;
2762;SDS011;1389;51.490;7.338;2023-04-03T10:35:00;454.90;;;227.40;;
2762;SDS011;1389;51.490;7.338;2023-04-03T10:37:35;445.42;;;216.73;;
2762;SDS011;1389;51.490;7.338;2023-04-03T10:43:01;439.85;;;205.65;;
2762;SDS011;1389;51.490;7.338;2023-04-03T10:45:49;447.80;;;223.52;;
2762;SDS011;1389;51.490;7.338;2023-04-03T10:51:22;442.35;;;212.40;;
2762;SDS011;1389;51.490;7.338;2023-04-03T11:02:04;462.38;;;244.65;;
2762;SDS011;1389;51.490;7.338;2023-04-03T11:04:34;463.90;;;246.00;;
2762;SDS011;1389;51.490;7.338;2023-04-03T11:07:46;456.23;;;234.63;;
2762;SDS011;1389;51.490;7.338;2023-04-03T11:09:58;465.92;;;248.30;;
2762;SDS011;1389;51.490;7.338;2023-04-03T11:12:52;463.67;;;242.23;;
2762;SDS011;1389;51.490;7.338;2023-04-03T11:15:23;476.63;;;262.55;;
2762;SDS011;1389;51.490;7.338;2023-04-03T11:17:58;482.63;;;266.45;;
2762;SDS011;1389;51.490;7.338;2023-04-03T11:20:29;468.90;;;252.55;;
2762;SDS011;1389;51.490;7.338;2023-04-03T11:23:00;456.40;;;242.38;;
2762;SDS011;1389;51.490;7.338;2023-04-03T11:25:44;473.92;;;258.02;;
2762;SDS011;1389;51.490;7.338;2023-04-03T11:28:14;471.70;;;253.45;;
2762;SDS011;1389;51.490;7.338;2023-04-03T11:36:18;483.38;;;271.15;;
2762;SDS011;1389;51.490;7.338;2023-04-03T11:39:00;491.27;;;269.27;;
2762;SDS011;1389;51.490;7.338;2023-04-03T11:41:33;480.50;;;268.57;;
2762;SDS011;1389;51.490;7.338;2023-04-03T11:44:01;480.77;;;271.73;;
2762;SDS011;1389;51.490;7.338;2023-04-03T11:46:48;461.40;;;239.30;;
2762;SDS011;1389;51.490;7.338;2023-04-03T11:57:47;453.50;;;228.15;;
2762;SDS011;1389;51.490;7.338;2023-04-03T12:14:01;485.08;;;272.63;;
2762;SDS011;1389;51.490;7.338;2023-04-03T12:16:30;458.97;;;238.93;;
2762;SDS011;1389;51.490;7.338;2023-04-03T12:19:25;472.48;;;259.38;;
2762;SDS011;1389;51.490;7.338;2023-04-03T12:22:07;460.40;;;238.43;;
2762;SDS011;1389;51.490;7.338;2023-04-03T12:24:36;476.73;;;263.13;;
2762;SDS011;1389;51.490;7.338;2023-04-03T12:32:40;473.60;;;259.83;;
2762;SDS011;1389;51.490;7.338;2023-04-03T12:43:34;474.38;;;263.98;;
2762;SDS011;1389;51.490;7.338;2023-04-03T12:46:22;484.42;;;271.50;;
2762;SDS011;1389;51.490;7.338;2023-04-03T12:48:50;469.95;;;249.82;;
2762;SDS011;1389;51.490;7.338;2023-04-03T12:51:22;459.77;;;242.82;;
2762;SDS011;1389;51.490;7.338;2023-04-03T12:53:51;465.38;;;250.48;;
2762;SDS011;1389;51.490;7.338;2023-04-03T12:58:51;473.63;;;263.93;;
2762;SDS011;1389;51.490;7.338;2023-04-03T13:01:23;466.77;;;246.75;;
2762;SDS011;1389;51.490;7.338;2023-04-03T13:03:54;459.17;;;233.23;;
2762;SDS011;1389;51.490;7.338;2023-04-03T13:06:22;460.63;;;237.88;;
2762;SDS011;1389;51.490;7.338;2023-04-03T13:08:58;449.77;;;219.35;;
2762;SDS011;1389;51.490;7.338;2023-04-03T13:11:27;452.95;;;230.25;;
2762;SDS011;1389;51.490;7.338;2023-04-03T13:14:01;450.70;;;227.13;;
2762;SDS011;1389;51.490;7.338;2023-04-03T13:16:30;450.20;;;223.30;;
2762;SDS011;1389;51.490;7.338;2023-04-03T13:18:57;571.05;;;372.27;;
2762;SDS011;1389;51.490;7.338;2023-04-03T13:21:25;470.85;;;255.07;;
2762;SDS011;1389;51.490;7.338;2023-04-03T13:23:57;463.65;;;243.45;;
2762;SDS011;1389;51.490;7.338;2023-04-03T13:26:29;455.00;;;233.75;;
2762;SDS011;1389;51.490;7.338;2023-04-03T13:29:14;459.67;;;239.07;;
2762;SDS011;1389;51.490;7.338;2023-04-03T13:32:04;454.50;;;233.17;;
2762;SDS011;1389;51.490;7.338;2023-04-03T13:34:36;453.52;;;220.85;;
2762;SDS011;1389;51.490;7.338;2023-04-03T13:37:06;447.05;;;222.23;;
2762;SDS011;1389;51.490;7.338;2023-04-03T13:39:34;458.95;;;246.15;;
2762;SDS011;1389;51.490;7.338;2023-04-03T13:42:16;450.50;;;229.10;;
2762;SDS011;1389;51.490;7.338;2023-04-03T13:45:16;452.20;;;233.38;;
2762;SDS011;1389;51.490;7.338;2023-04-03T13:47:43;453.30;;;229.95;;
2762;SDS011;1389;51.490;7.338;2023-04-03T13:52:44;462.20;;;244.20;;
2762;SDS011;1389;51.490;7.338;2023-04-03T13:57:51;452.25;;;232.60;;
2762;SDS011;1389;51.490;7.338;2023-04-03T14:03:11;460.98;;;242.02;;
2762;SDS011;1389;51.490;7.338;2023-04-03T14:05:58;449.92;;;234.48;;
2762;SDS011;1389;51.490;7.338;2023-04-03T14:08:26;447.90;;;232.40;;
2762;SDS011;1389;51.490;7.338;2023-04-03T14:10:53;461.05;;;246.00;;
2762;SDS011;1389;51.490;7.338;2023-04-03T14:13:19;468.55;;;261.38;;
2762;SDS011;1389;51.490;7.338;2023-04-03T14:15:47;447.30;;;229.50;;
2762;SDS011;1389;51.490;7.338;2023-04-03T14:18:15;454.42;;;240.88;;
2762;SDS011;1389;51.490;7.338;2023-04-03T14:20:43;461.88;;;255.80;;
2762;SDS011;1389;51.490;7.338;2023-04-03T14:23:09;452.42;;;235.45;;
2762;SDS011;1389;51.490;7.338;2023-04-03T14:25:36;456.20;;;247.00;;
2762;SDS011;1389;51.490;7.338;2023-04-03T14:30:58;464.02;;;254.70;;
2762;SDS011;1389;51.490;7.338;2023-04-03T14:33:25;458.27;;;245.85;;
2762;SDS011;1389;51.490;7.338;2023-04-03T14:35:53;461.15;;;246.75;;
2762;SDS011;1389;51.490;7.338;2023-04-03T14:38:26;463.30;;;253.80;;
2762;SDS011;1389;51.490;7.338;2023-04-03T14:40:55;477.15;;;270.45;;
2762;SDS011;1389;51.490;7.338;2023-04-03T14:43:21;469.53;;;260.27;;
2762;SDS011;1389;51.490;7.338;2023-04-03T14:45:48;467.95;;;267.73;;
2762;SDS011;1389;51.490;7.338;2023-04-03T14:48:20;464.13;;;254.25;;
2762;SDS011;1389;51.490;7.338;2023-04-03T14:50:48;465.10;;;263.20;;
2762;SDS011;1389;51.490;7.338;2023-04-03T14:53:16;461.35;;;262.45;;
2762;SDS011;1389;51.490;7.338;2023-04-03T14:55:44;480.88;;;280.85;;
2762;SDS011;1389;51.490;7.338;2023-04-03T14:58:12;472.10;;;282.27;;
2762;SDS011;1389;51.490;7.338;2023-04-03T15:00:40;489.25;;;305.10;;
2762;SDS011;1389;51.490;7.338;2023-04-03T15:03:09;544.23;;;406.77;;
2762;SDS011;1389;51.490;7.338;2023-04-03T15:05:43;475.05;;;285.08;;
2762;SDS011;1389;51.490;7.338;2023-04-03T15:08:18;459.83;;;260.88;;
2762;SDS011;1389;51.490;7.338;2023-04-03T15:10:46;463.42;;;264.15;;
2762;SDS011;1389;51.490;7.338;2023-04-03T15:13:13;476.42;;;287.15;;
2762;SDS011;1389;51.490;7.338;2023-04-03T15:15:40;465.20;;;273.77;;
2762;SDS011;1389;51.490;7.338;2023-04-03T15:18:09;458.10;;;258.93;;
2762;SDS011;1389;51.490;7.338;2023-04-03T15:20:40;465.95;;;269.05;;
2762;SDS011;1389;51.490;7.338;2023-04-03T15:23:06;464.60;;;273.25;;
2762;SDS011;1389;51.490;7.338;2023-04-03T15:25:34;481.80;;;287.50;;
2762;SDS011;1389;51.490;7.338;2023-04-03T15:28:00;471.35;;;283.08;;
2762;SDS011;1389;51.490;7.338;2023-04-03T15:30:26;477.60;;;291.85;;
2762;SDS011;1389;51.490;7.338;2023-04-03T15:32:52;481.23;;;296.90;;
2762;SDS011;1389;51.490;7.338;2023-04-03T15:35:18;500.83;;;326.08;;
2762;SDS011;1389;51.490;7.338;2023-04-03T15:37:44;501.65;;;332.52;;
2762;SDS011;1389;51.490;7.338;2023-04-03T15:40:11;511.58;;;336.40;;
2762;SDS011;1389;51.490;7.338;2023-04-03T15:42:37;494.77;;;324.85;;
2762;SDS011;1389;51.490;7.338;2023-04-03T15:45:03;493.10;;;323.33;;
2762;SDS011;1389;51.490;7.338;2023-04-03T15:47:30;501.88;;;335.85;;
2762;SDS011;1389;51.490;7.338;2023-04-03T15:49:56;490.98;;;321.80;;
2762;SDS011;1389;51.490;7.338;2023-04-03T15:52:23;493.55;;;322.90;;
2762;SDS011;1389;51.490;7.338;2023-04-03T15:54:49;503.15;;;333.00;;
2762;SDS011;1389;51.490;7.338;2023-04-03T15:57:15;512.38;;;355.88;;
2762;SDS011;1389;51.490;7.338;2023-04-03T15:59:41;507.63;;;345.47;;
2762;SDS011;1389;51.490;7.338;2023-04-03T16:02:07;509.50;;;347.58;;
2762;SDS011;1389;51.490;7.338;2023-04-03T16:04:38;502.67;;;340.67;;
2762;SDS011;1389;51.490;7.338;2023-04-03T16:07:04;515.17;;;363.43;;
2762;SDS011;1389;51.490;7.338;2023-04-03T16:09:32;519.42;;;356.35;;
2762;SDS011;1389;51.490;7.338;2023-04-03T16:11:59;542.30;;;390.10;;
2762;SDS011;1389;51.490;7.338;2023-04-03T16:14:26;511.95;;;353.33;;
2762;SDS011;1389;51.490;7.338;2023-04-03T16:16:53;510.40;;;359.10;;
2762;SDS011;1389;51.490;7.338;2023-04-03T16:19:19;509.33;;;355.80;;